AEE2AM LGAV-LGIO
Flight info
| Callsign | AEE2AM |
|---|---|
| Flight time | 0h 37m |
| Altitude | 24000 |
| Route | KOR L53 GARTA L611 IBTIN |
| Aircraft | A320/M-SDE3FGHIRWY/LB1 |
Departure
| Time | 2026-04-20 12:49 |
|---|---|
| Airport | Athens Eleftherios Venizelos International Airport (LGAV) |
Arrival
| Time | 2026-04-20 13:27 |
|---|---|
| Airport | Ioannina King Pyrrhus National Airport (LGIO) |
| Time | Latitude | Longitude | Altitude | Speed | Heading |
|---|---|---|---|---|---|
| 2026-04-20 12:09 | 37.94113 | 23.95376 | 302 ft | 0 kts | 217° |
| 2026-04-20 12:40 | 37.94131 | 23.95393 | 301 ft | 4 kts | 217° |
| 2026-04-20 12:41 | 37.94151 | 23.95412 | 300 ft | 1 kts | 217° |
| 2026-04-20 12:41 | 37.94170 | 23.95428 | 301 ft | 4 kts | 205° |
| 2026-04-20 12:41 | 37.94194 | 23.95437 | 300 ft | 4 kts | 168° |
| 2026-04-20 12:41 | 37.94209 | 23.95428 | 304 ft | 0 kts | 127° |
| 2026-04-20 12:43 | 37.94205 | 23.95435 | 300 ft | 3 kts | 127° |
| 2026-04-20 12:43 | 37.94185 | 23.95468 | 300 ft | 7 kts | 127° |
| 2026-04-20 12:44 | 37.94143 | 23.95538 | 300 ft | 12 kts | 127° |
| 2026-04-20 12:44 | 37.94090 | 23.95628 | 299 ft | 13 kts | 121° |
| 2026-04-20 12:44 | 37.94133 | 23.95740 | 301 ft | 18 kts | 36° |
| 2026-04-20 12:44 | 37.94230 | 23.95831 | 299 ft | 18 kts | 37° |
| 2026-04-20 12:45 | 37.94339 | 23.95934 | 299 ft | 21 kts | 37° |
| 2026-04-20 12:45 | 37.94462 | 23.96051 | 299 ft | 20 kts | 37° |
| 2026-04-20 12:45 | 37.94541 | 23.96126 | 300 ft | 22 kts | 37° |
| 2026-04-20 12:45 | 37.94615 | 23.96197 | 301 ft | 12 kts | 37° |
| 2026-04-20 12:46 | 37.94695 | 23.96272 | 301 ft | 16 kts | 37° |
| 2026-04-20 12:46 | 37.94796 | 23.96368 | 300 ft | 20 kts | 37° |
| 2026-04-20 12:46 | 37.94902 | 23.96469 | 302 ft | 17 kts | 37° |
| 2026-04-20 12:46 | 37.95007 | 23.96568 | 302 ft | 21 kts | 37° |
| 2026-04-20 12:47 | 37.95131 | 23.96686 | 304 ft | 24 kts | 37° |
| 2026-04-20 12:47 | 37.95261 | 23.96809 | 304 ft | 19 kts | 37° |
| 2026-04-20 12:47 | 37.95295 | 23.96898 | 305 ft | 11 kts | 119° |
| 2026-04-20 12:47 | 37.95249 | 23.96979 | 308 ft | 11 kts | 126° |
| 2026-04-20 12:48 | 37.95204 | 23.97033 | 311 ft | 5 kts | 187° |
| 2026-04-20 12:48 | 37.95165 | 23.96998 | 310 ft | 9 kts | 216° |
| 2026-04-20 12:48 | 37.95103 | 23.96939 | 309 ft | 13 kts | 217° |
| 2026-04-20 12:48 | 37.94904 | 23.96749 | 306 ft | 70 kts | 217° |
| 2026-04-20 12:49 | 37.94346 | 23.96219 | 291 ft | 128 kts | 217° |
| 2026-04-20 12:49 | 37.93521 | 23.95426 | 371 ft | 163 kts | 217° |
| 2026-04-20 12:49 | 37.92561 | 23.94683 | 1015 ft | 159 kts | 209° |
| 2026-04-20 12:49 | 37.91574 | 23.94047 | 1657 ft | 160 kts | 208° |
| 2026-04-20 12:50 | 37.90607 | 23.93410 | 2211 ft | 160 kts | 211° |
| 2026-04-20 12:50 | 37.89560 | 23.92691 | 2518 ft | 182 kts | 211° |
| 2026-04-20 12:50 | 37.88374 | 23.91872 | 2802 ft | 206 kts | 210° |
| 2026-04-20 12:50 | 37.87040 | 23.90952 | 3184 ft | 230 kts | 211° |
| 2026-04-20 12:51 | 37.85588 | 23.89950 | 3829 ft | 242 kts | 211° |
| 2026-04-20 12:51 | 37.84090 | 23.88923 | 4695 ft | 248 kts | 211° |
| 2026-04-20 12:51 | 37.82556 | 23.87874 | 5556 ft | 253 kts | 211° |
| 2026-04-20 12:51 | 37.80998 | 23.86808 | 6465 ft | 256 kts | 211° |
| 2026-04-20 12:52 | 37.79421 | 23.85732 | 7326 ft | 259 kts | 211° |
| 2026-04-20 12:52 | 37.77826 | 23.84643 | 8184 ft | 262 kts | 211° |
| 2026-04-20 12:52 | 37.76229 | 23.83550 | 9036 ft | 266 kts | 211° |
| 2026-04-20 12:52 | 37.74594 | 23.82432 | 9875 ft | 269 kts | 211° |
| 2026-04-20 12:53 | 37.72930 | 23.81305 | 10564 ft | 276 kts | 213° |
| 2026-04-20 12:53 | 37.71459 | 23.79656 | 10824 ft | 294 kts | 238° |
| 2026-04-20 12:53 | 37.70683 | 23.77216 | 11019 ft | 307 kts | 265° |
| 2026-04-20 12:53 | 37.70898 | 23.74473 | 11178 ft | 326 kts | 288° |
| 2026-04-20 12:54 | 37.71645 | 23.71663 | 11305 ft | 349 kts | 289° |
| 2026-04-20 12:54 | 37.72470 | 23.68729 | 11435 ft | 368 kts | 290° |
| 2026-04-20 12:54 | 37.73364 | 23.65595 | 11811 ft | 379 kts | 290° |
| 2026-04-20 12:54 | 37.74247 | 23.62482 | 12407 ft | 383 kts | 290° |
| 2026-04-20 12:55 | 37.75142 | 23.59292 | 13041 ft | 385 kts | 290° |
| 2026-04-20 12:55 | 37.76032 | 23.56079 | 13699 ft | 388 kts | 290° |
| 2026-04-20 12:55 | 37.76920 | 23.52850 | 14303 ft | 390 kts | 290° |
| 2026-04-20 12:55 | 37.77813 | 23.49602 | 14865 ft | 393 kts | 290° |
| 2026-04-20 12:56 | 37.78712 | 23.46328 | 15427 ft | 395 kts | 290° |
| 2026-04-20 12:56 | 37.79616 | 23.43033 | 15976 ft | 397 kts | 290° |
| 2026-04-20 12:56 | 37.80513 | 23.39767 | 16510 ft | 400 kts | 290° |
| 2026-04-20 12:56 | 37.81425 | 23.36437 | 17054 ft | 402 kts | 290° |
| 2026-04-20 12:57 | 37.82339 | 23.33084 | 17599 ft | 404 kts | 290° |
| 2026-04-20 12:57 | 37.83256 | 23.29715 | 18143 ft | 407 kts | 290° |
| 2026-04-20 12:57 | 37.84178 | 23.26324 | 18622 ft | 409 kts | 290° |
| 2026-04-20 12:57 | 37.85106 | 23.22912 | 19097 ft | 411 kts | 290° |
| 2026-04-20 12:58 | 37.86039 | 23.19480 | 19578 ft | 413 kts | 290° |
| 2026-04-20 12:58 | 37.86977 | 23.16036 | 20032 ft | 415 kts | 290° |
| 2026-04-20 12:58 | 37.87920 | 23.12570 | 20484 ft | 417 kts | 290° |
| 2026-04-20 12:58 | 37.88868 | 23.09081 | 20910 ft | 419 kts | 290° |
| 2026-04-20 12:59 | 37.89818 | 23.05575 | 21345 ft | 421 kts | 290° |
| 2026-04-20 12:59 | 37.90766 | 23.02066 | 21741 ft | 423 kts | 290° |
| 2026-04-20 12:59 | 37.91705 | 22.98581 | 22116 ft | 425 kts | 290° |
| 2026-04-20 12:59 | 37.92714 | 22.95050 | 22483 ft | 426 kts | 294° |
| 2026-04-20 13:00 | 37.94107 | 22.91765 | 22843 ft | 427 kts | 304° |
| 2026-04-20 13:00 | 37.95816 | 22.88693 | 23104 ft | 416 kts | 305° |
| 2026-04-20 13:00 | 37.97477 | 22.85680 | 23235 ft | 418 kts | 304° |
| 2026-04-20 13:00 | 37.99151 | 22.82612 | 23383 ft | 426 kts | 304° |
| 2026-04-20 13:01 | 38.00842 | 22.79501 | 23622 ft | 430 kts | 304° |
| 2026-04-20 13:01 | 38.02526 | 22.76409 | 23896 ft | 432 kts | 304° |
| 2026-04-20 13:01 | 38.04241 | 22.73270 | 23988 ft | 433 kts | 304° |
| 2026-04-20 13:01 | 38.05971 | 22.70115 | 24007 ft | 435 kts | 304° |
| 2026-04-20 13:02 | 38.07701 | 22.66964 | 24007 ft | 435 kts | 304° |
| 2026-04-20 13:02 | 38.09427 | 22.63815 | 24007 ft | 435 kts | 304° |
| 2026-04-20 13:02 | 38.11154 | 22.60660 | 24007 ft | 435 kts | 304° |
| 2026-04-20 13:02 | 38.12880 | 22.57500 | 24011 ft | 435 kts | 304° |
| 2026-04-20 13:03 | 38.14605 | 22.54344 | 24010 ft | 435 kts | 304° |
| 2026-04-20 13:03 | 38.16309 | 22.51228 | 24008 ft | 435 kts | 304° |
| 2026-04-20 13:03 | 38.18034 | 22.48066 | 24008 ft | 435 kts | 304° |
| 2026-04-20 13:03 | 38.19741 | 22.44925 | 24004 ft | 435 kts | 304° |
| 2026-04-20 13:04 | 38.21454 | 22.41766 | 24003 ft | 434 kts | 304° |
| 2026-04-20 13:04 | 38.23167 | 22.38606 | 24005 ft | 434 kts | 304° |
| 2026-04-20 13:04 | 38.24878 | 22.35451 | 24006 ft | 433 kts | 304° |
| 2026-04-20 13:04 | 38.26597 | 22.32286 | 24014 ft | 433 kts | 304° |
| 2026-04-20 13:05 | 38.28316 | 22.29125 | 24017 ft | 433 kts | 304° |
| 2026-04-20 13:05 | 38.30020 | 22.25987 | 24019 ft | 424 kts | 304° |
| 2026-04-20 13:05 | 38.31700 | 22.22881 | 24022 ft | 434 kts | 304° |
| 2026-04-20 13:05 | 38.33417 | 22.19694 | 24017 ft | 435 kts | 304° |
| 2026-04-20 13:06 | 38.35108 | 22.16555 | 24029 ft | 435 kts | 304° |
| 2026-04-20 13:06 | 38.36826 | 22.13368 | 24026 ft | 435 kts | 304° |
| 2026-04-20 13:06 | 38.38525 | 22.10212 | 24025 ft | 435 kts | 304° |
| 2026-04-20 13:06 | 38.40234 | 22.07036 | 24027 ft | 434 kts | 304° |
| 2026-04-20 13:07 | 38.41946 | 22.03855 | 24034 ft | 434 kts | 305° |
| 2026-04-20 13:07 | 38.43656 | 22.00678 | 24034 ft | 435 kts | 305° |
| 2026-04-20 13:07 | 38.45365 | 21.97497 | 24034 ft | 435 kts | 304° |
| 2026-04-20 13:07 | 38.47076 | 21.94303 | 24033 ft | 436 kts | 304° |
| 2026-04-20 13:08 | 38.48782 | 21.91111 | 24033 ft | 435 kts | 304° |
| 2026-04-20 13:08 | 38.50489 | 21.87916 | 24031 ft | 435 kts | 304° |
| 2026-04-20 13:08 | 38.52194 | 21.84729 | 24028 ft | 435 kts | 304° |
| 2026-04-20 13:08 | 38.53905 | 21.81527 | 24034 ft | 435 kts | 304° |
| 2026-04-20 13:09 | 38.55586 | 21.78378 | 24025 ft | 435 kts | 304° |
| 2026-04-20 13:09 | 38.57286 | 21.75185 | 24030 ft | 435 kts | 304° |
| 2026-04-20 13:09 | 38.58984 | 21.71989 | 24031 ft | 435 kts | 304° |
| 2026-04-20 13:09 | 38.60680 | 21.68792 | 24032 ft | 434 kts | 304° |
| 2026-04-20 13:10 | 38.62374 | 21.65599 | 24029 ft | 434 kts | 304° |
| 2026-04-20 13:10 | 38.64070 | 21.62404 | 24029 ft | 434 kts | 304° |
| 2026-04-20 13:10 | 38.65763 | 21.59208 | 24028 ft | 434 kts | 304° |
| 2026-04-20 13:10 | 38.67459 | 21.56001 | 24026 ft | 434 kts | 304° |
| 2026-04-20 13:11 | 38.69149 | 21.52805 | 24034 ft | 434 kts | 304° |
| 2026-04-20 13:11 | 38.70844 | 21.49602 | 24030 ft | 434 kts | 304° |
| 2026-04-20 13:11 | 38.72537 | 21.46401 | 24027 ft | 434 kts | 304° |
| 2026-04-20 13:11 | 38.74228 | 21.43200 | 24026 ft | 434 kts | 304° |
| 2026-04-20 13:12 | 38.75820 | 21.40184 | 24030 ft | 434 kts | 304° |
| 2026-04-20 13:12 | 38.77355 | 21.37273 | 24032 ft | 434 kts | 304° |
| 2026-04-20 13:12 | 38.79051 | 21.34049 | 23826 ft | 436 kts | 304° |
| 2026-04-20 13:12 | 38.80748 | 21.30820 | 23409 ft | 434 kts | 304° |
| 2026-04-20 13:13 | 38.82430 | 21.27622 | 22346 ft | 430 kts | 304° |
| 2026-04-20 13:13 | 38.84084 | 21.24471 | 21521 ft | 422 kts | 304° |
| 2026-04-20 13:13 | 38.85716 | 21.21352 | 20677 ft | 417 kts | 304° |
| 2026-04-20 13:13 | 38.87323 | 21.18281 | 19838 ft | 413 kts | 304° |
| 2026-04-20 13:14 | 38.88912 | 21.15237 | 19023 ft | 409 kts | 303° |
| 2026-04-20 13:14 | 38.90492 | 21.12210 | 18191 ft | 405 kts | 304° |
| 2026-04-20 13:14 | 38.92033 | 21.09257 | 17343 ft | 400 kts | 304° |
| 2026-04-20 13:14 | 38.93571 | 21.06307 | 16543 ft | 395 kts | 303° |
| 2026-04-20 13:15 | 38.95090 | 21.03390 | 15763 ft | 391 kts | 304° |
| 2026-04-20 13:15 | 38.96783 | 21.00672 | 15003 ft | 388 kts | 314° |
| 2026-04-20 13:15 | 38.98849 | 20.98442 | 14241 ft | 388 kts | 324° |
| 2026-04-20 13:15 | 39.01229 | 20.96778 | 13429 ft | 389 kts | 336° |
| 2026-04-20 13:16 | 39.03809 | 20.95769 | 12687 ft | 387 kts | 347° |
| 2026-04-20 13:16 | 39.06424 | 20.95231 | 11981 ft | 383 kts | 349° |
| 2026-04-20 13:16 | 39.09051 | 20.94705 | 11366 ft | 376 kts | 349° |
| 2026-04-20 13:16 | 39.11568 | 20.94193 | 11225 ft | 356 kts | 349° |
| 2026-04-20 13:17 | 39.13950 | 20.93703 | 11111 ft | 338 kts | 349° |
| 2026-04-20 13:17 | 39.16217 | 20.93234 | 10980 ft | 323 kts | 349° |
| 2026-04-20 13:17 | 39.18387 | 20.92786 | 10856 ft | 309 kts | 348° |
| 2026-04-20 13:17 | 39.20475 | 20.92355 | 10734 ft | 298 kts | 348° |
| 2026-04-20 13:18 | 39.22485 | 20.91939 | 10613 ft | 287 kts | 349° |
| 2026-04-20 13:18 | 39.24430 | 20.91535 | 10440 ft | 279 kts | 349° |
| 2026-04-20 13:18 | 39.26333 | 20.91143 | 10199 ft | 275 kts | 349° |
| 2026-04-20 13:18 | 39.28215 | 20.90753 | 9978 ft | 273 kts | 349° |
| 2026-04-20 13:19 | 39.30065 | 20.90368 | 9854 ft | 273 kts | 349° |
| 2026-04-20 13:19 | 39.31939 | 20.89983 | 9722 ft | 273 kts | 349° |
| 2026-04-20 13:19 | 39.33821 | 20.89594 | 9344 ft | 278 kts | 349° |
| 2026-04-20 13:19 | 39.35744 | 20.89189 | 8950 ft | 278 kts | 349° |
| 2026-04-20 13:20 | 39.37673 | 20.88780 | 8319 ft | 287 kts | 349° |
| 2026-04-20 13:20 | 39.39653 | 20.88358 | 7943 ft | 286 kts | 349° |
| 2026-04-20 13:20 | 39.41583 | 20.87948 | 7782 ft | 277 kts | 349° |
| 2026-04-20 13:20 | 39.43477 | 20.87912 | 7662 ft | 270 kts | 7° |
| 2026-04-20 13:21 | 39.45256 | 20.88685 | 7306 ft | 274 kts | 26° |
| 2026-04-20 13:21 | 39.46925 | 20.89890 | 6903 ft | 276 kts | 26° |
| 2026-04-20 13:21 | 39.48612 | 20.91106 | 6499 ft | 280 kts | 25° |
| 2026-04-20 13:21 | 39.50418 | 20.91937 | 6087 ft | 270 kts | 8° |
| 2026-04-20 13:22 | 39.52210 | 20.92356 | 5697 ft | 262 kts | 7° |
| 2026-04-20 13:22 | 39.53986 | 20.92764 | 5322 ft | 255 kts | 5° |
| 2026-04-20 13:22 | 39.55689 | 20.92833 | 4968 ft | 239 kts | 355° |
| 2026-04-20 13:22 | 39.57312 | 20.92814 | 4620 ft | 228 kts | 356° |
| 2026-04-20 13:23 | 39.58844 | 20.92699 | 4299 ft | 211 kts | 343° |
| 2026-04-20 13:23 | 39.60101 | 20.92013 | 3995 ft | 186 kts | 323° |
| 2026-04-20 13:23 | 39.61071 | 20.91037 | 3748 ft | 170 kts | 318° |
| 2026-04-20 13:23 | 39.61353 | 20.90750 | 3667 ft | 166 kts | 317° |
| 2026-04-20 13:24 | 39.61822 | 20.90274 | 3544 ft | 157 kts | 317° |
| 2026-04-20 13:24 | 39.62642 | 20.89437 | 3287 ft | 145 kts | 318° |
| 2026-04-20 13:24 | 39.63414 | 20.88608 | 3107 ft | 143 kts | 318° |
| 2026-04-20 13:24 | 39.64180 | 20.87803 | 2990 ft | 140 kts | 319° |
| 2026-04-20 13:25 | 39.64954 | 20.87065 | 2665 ft | 140 kts | 320° |
| 2026-04-20 13:25 | 39.65732 | 20.86303 | 2416 ft | 140 kts | 318° |
| 2026-04-20 13:25 | 39.66487 | 20.85521 | 2248 ft | 137 kts | 317° |
| 2026-04-20 13:25 | 39.67222 | 20.84732 | 2046 ft | 136 kts | 319° |
| 2026-04-20 13:26 | 39.67970 | 20.83983 | 1870 ft | 136 kts | 320° |
| 2026-04-20 13:26 | 39.68709 | 20.83232 | 1644 ft | 135 kts | 321° |
| 2026-04-20 13:26 | 39.69417 | 20.82511 | 1566 ft | 114 kts | 321° |
| 2026-04-20 13:26 | 39.69844 | 20.82075 | 1568 ft | 72 kts | 322° |
| 2026-04-20 13:27 | 39.70006 | 20.81919 | 1567 ft | 11 kts | 338° |
| 2026-04-20 13:27 | 39.70013 | 20.81899 | 1567 ft | 1 kts | 221° |
| 2026-04-20 13:27 | 39.70010 | 20.81901 | 1567 ft | 1 kts | 185° |
| 2026-04-20 13:27 | 39.69987 | 20.81929 | 1567 ft | 7 kts | 137° |
| 2026-04-20 13:28 | 39.69934 | 20.81961 | 1567 ft | 11 kts | 178° |
| 2026-04-20 13:28 | 39.69880 | 20.81912 | 1566 ft | 7 kts | 228° |
| 2026-04-20 13:28 | 39.69828 | 20.81871 | 1565 ft | 10 kts | 191° |
| 2026-04-20 13:28 | 39.69756 | 20.81907 | 1565 ft | 12 kts | 142° |
| 2026-04-20 13:29 | 39.69683 | 20.81981 | 1565 ft | 14 kts | 142° |
| 2026-04-20 13:29 | 39.69614 | 20.82050 | 1565 ft | 6 kts | 141° |
| 2026-04-20 13:29 | 39.69606 | 20.82058 | 1565 ft | 2 kts | 141° |
| 2026-04-20 13:29 | 39.69588 | 20.82078 | 1565 ft | 5 kts | 141° |
| 2026-04-20 13:30 | 39.69571 | 20.82096 | 1565 ft | 4 kts | 141° |
| 2026-04-20 13:30 | 39.69556 | 20.82111 | 1565 ft | 0 kts | 141° |
| 2026-04-20 13:30 | 39.69533 | 20.82136 | 1565 ft | 10 kts | 141° |
| 2026-04-20 13:30 | 39.69485 | 20.82146 | 1565 ft | 0 kts | 217° |
| 2026-04-20 13:31 | 39.69483 | 20.82141 | 1565 ft | 2 kts | 231° |
| 2026-04-20 13:31 | 39.69478 | 20.82134 | 1565 ft | 2 kts | 231° |
| 2026-04-20 13:31 | 39.69463 | 20.82077 | 1564 ft | 0 kts | 139° |